Time;durP1;ratioP1;P1;durP2;ratioP2;P2;SDS_P1;SDS_P2;PMS_P1;PMS_P2;Temp;Humidity;BMP_temperature;BMP_pressure;BME280_temperature;BME280_humidity;BME280_pressure;Samples;Min_cycle;Max_cycle;Signal;HPM_P1;HPM_P2
2023/01/24 09:33:03;;;;;;;9.82;4.53;;;;;;;;;;6214670;22;1396455;-93
2023/01/24 09:35:31;;;;;;;10.52;5.03;;;;;;;;;;6246652;22;20031;-92
2023/01/24 09:37:59;;;;;;;12.23;4.93;;;;;;;;;;6255775;22;20069;-93
2023/01/24 09:41:03;;;;;;;8.82;4.93;;;;;;;;;;6282652;22;20027;-92
2023/01/24 09:43:51;;;;;;;11.60;4.60;;;;;;;;;;6244867;22;20019;-93
2023/01/24 09:46:30;;;;;;;10.85;5.18;;;;;;;;;;6269953;22;20022;-93
2023/01/24 09:49:13;;;;;;;11.30;4.47;;;;;;;;;;6283830;22;20008;-92
2023/01/24 09:51:49;;;;;;;15.13;5.03;;;;;;;;;;6281896;22;20026;-93
2023/01/24 09:54:50;;;;;;;10.00;5.45;;;;;;;;;;6280577;22;20014;-92
2023/01/24 09:57:26;;;;;;;9.85;4.22;;;;;;;;;;6244637;22;20408;-92
2023/01/24 10:00:09;;;;;;;9.57;4.55;;;;;;;;;;6281608;22;20020;-91
2023/01/24 10:02:37;;;;;;;9.18;4.78;;;;;;;;;;6280467;22;20553;-92
2023/01/24 10:05:12;;;;;;;11.75;4.90;;;;;;;;;;6257026;22;20039;-93
2023/01/24 10:08:20;;;;;;;7.80;4.65;;;;;;;;;;6245996;22;20024;-93
2023/01/24 10:11:26;;;;;;;10.13;4.80;;;;;;;;;;6170255;23;20562;-93
2023/01/24 10:14:12;;;;;;;9.63;4.85;;;;;;;;;;6170259;23;20020;-93
2023/01/24 10:17:12;;;;;;;11.98;4.97;;;;;;;;;;6169140;23;20512;-93
2023/01/24 10:20:14;;;;;;;11.25;5.63;;;;;;;;;;6219296;23;20083;-93
2023/01/24 10:22:59;;;;;;;11.88;5.63;;;;;;;;;;6170016;23;20096;-93
2023/01/24 10:25:50;;;;;;;12.80;5.68;;;;;;;;;;6185397;23;20024;-94
2023/01/24 10:28:40;;;;;;;6.25;2.83;;;;;;;;;;6194827;23;20023;-93
2023/01/24 10:31:10;;;;;;;14.85;6.15;;;;;;;;;;6182115;23;20084;-93
2023/01/24 10:34:09;;;;;;;9.00;5.25;;;;;;;;;;6157773;23;20389;-92
2023/01/24 10:36:48;;;;;;;11.32;5.20;;;;;;;;;;6194642;23;20032;-92
2023/01/24 10:39:39;;;;;;;10.93;5.53;;;;;;;;;;6160160;23;20013;-93
2023/01/24 10:42:27;;;;;;;12.85;5.18;;;;;;;;;;6184317;23;20024;-93
2023/01/24 10:45:00;;;;;;;14.60;5.40;;;;;;;;;;6160433;23;20111;-93
2023/01/24 10:47:43;;;;;;;9.60;5.35;;;;;;;;;;6200495;22;20386;-93
2023/01/24 10:50:14;;;;;;;11.52;5.28;;;;;;;;;;6282248;22;20012;-93
2023/01/24 10:53:27;;;;;;;11.50;5.63;;;;;;;;;;6281510;22;20024;-93
2023/01/24 10:56:01;;;;;;;10.68;5.63;;;;;;;;;;6282497;22;20026;-93
2023/01/24 10:58:32;;;;;;;12.65;5.72;;;;;;;;;;6281865;22;20011;-93
2023/01/24 11:01:32;;;;;;;15.13;6.25;;;;;;;;;;6280488;22;20020;-93
2023/01/24 11:04:13;;;;;;;12.40;5.95;;;;;;;;;;6243799;22;20065;-92
2023/01/24 11:06:45;;;;;;;12.88;6.38;;;;;;;;;;6220874;22;20058;-93
2023/01/24 11:09:21;;;;;;;9.07;5.03;;;;;;;;;;6255369;22;20012;-93
2023/01/24 11:11:57;;;;;;;12.55;5.75;;;;;;;;;;6245328;22;20402;-91
2023/01/24 11:14:33;;;;;;;11.55;5.90;;;;;;;;;;6269129;22;20077;-93
2023/01/24 11:17:02;;;;;;;13.63;6.20;;;;;;;;;;6281227;22;20452;-93
2023/01/24 11:19:32;;;;;;;14.75;6.13;;;;;;;;;;6280924;22;20008;-93
2023/01/24 11:22:02;;;;;;;12.60;5.47;;;;;;;;;;6246074;22;20390;-93
2023/01/24 11:24:29;;;;;;;13.75;5.80;;;;;;;;;;6257075;22;20020;-92
2023/01/24 11:27:02;;;;;;;11.40;5.53;;;;;;;;;;6219790;22;20031;-92
2023/01/24 11:29:35;;;;;;;11.73;5.80;;;;;;;;;;6297389;22;20037;-93
2023/01/24 11:32:40;;;;;;;13.77;5.72;;;;;;;;;;6243977;22;20032;-93
2023/01/24 11:35:17;;;;;;;12.80;5.75;;;;;;;;;;6196544;23;20552;-93
2023/01/24 11:37:54;;;;;;;13.13;5.97;;;;;;;;;;6169807;23;20043;-93
2023/01/24 11:40:44;;;;;;;12.50;5.88;;;;;;;;;;6160055;23;20027;-94
2023/01/24 11:44:12;;;;;;;11.55;5.35;;;;;;;;;;6194172;23;20048;-93
2023/01/24 11:47:02;;;;;;;9.68;4.78;;;;;;;;;;6157009;23;20499;-93
2023/01/24 11:50:16;;;;;;;10.48;4.95;;;;;;;;;;6163324;23;20028;-92
2023/01/24 11:52:57;;;;;;;10.90;5.45;;;;;;;;;;6217511;23;20047;-92
2023/01/24 11:55:46;;;;;;;11.40;5.88;;;;;;;;;;6168130;23;20035;-92
2023/01/24 11:58:41;;;;;;;11.60;5.97;;;;;;;;;;6181969;23;20021;-93
2023/01/24 12:01:28;;;;;;;12.70;6.25;;;;;;;;;;6156899;23;20112;-93
2023/01/24 12:04:36;;;;;;;13.50;5.72;;;;;;;;;;6134638;23;20051;-93
2023/01/24 12:07:26;;;;;;;15.02;5.40;;;;;;;;;;6146130;23;20057;-93
2023/01/24 12:10:08;;;;;;;11.93;5.85;;;;;;;;;;6061146;23;20476;-93
2023/01/24 12:12:49;;;;;;;12.68;5.80;;;;;;;;;;6076061;23;20836;-93
2023/01/24 12:15:31;;;;;;;10.52;6.07;;;;;;;;;;6065496;23;20018;-92
2023/01/24 12:18:13;;;;;;;12.10;6.10;;;;;;;;;;6088505;23;20593;-92
2023/01/24 12:20:58;;;;;;;10.65;5.70;;;;;;;;;;6099900;23;20488;-93
2023/01/24 12:24:02;;;;;;;11.10;5.68;;;;;;;;;;6081297;23;20019;-92
2023/01/24 12:26:35;;;;;;;13.23;5.57;;;;;;;;;;6077015;23;20018;-93
2023/01/24 12:29:14;;;;;;;8.68;5.13;;;;;;;;;;6101257;23;20050;-92
2023/01/24 12:32:02;;;;;;;11.95;5.82;;;;;;;;;;6067414;23;20046;-93
2023/01/24 12:34:52;;;;;;;9.40;5.57;;;;;;;;;;6074533;23;20018;-91
2023/01/24 12:37:19;;;;;;;10.90;5.57;;;;;;;;;;6101631;23;20030;-94
2023/01/24 12:39:59;;;;;;;10.48;5.63;;;;;;;;;;6067574;23;20254;-93
2023/01/24 12:43:04;;;;;;;8.60;5.00;;;;;;;;;;6189481;23;20128;-93
2023/01/24 12:46:25;;;;;;;10.77;5.30;;;;;;;;;;6149271;22;20097;-93
2023/01/24 12:49:07;;;;;;;9.50;5.10;;;;;;;;;;6247265;22;20427;-92
2023/01/24 12:51:54;;;;;;;10.95;5.15;;;;;;;;;;6284863;22;20016;-92
2023/01/24 12:54:42;;;;;;;10.27;4.70;;;;;;;;;;6282027;22;20110;-93
2023/01/24 12:57:50;;;;;;;12.40;5.93;;;;;;;;;;6281279;22;20015;-93
2023/01/24 13:00:23;;;;;;;11.07;5.40;;;;;;;;;;6225275;23;20024;-92
2023/01/24 13:03:20;;;;;;;11.32;5.40;;;;;;;;;;6223554;23;20092;-92
2023/01/24 13:05:50;;;;;;;11.07;5.13;;;;;;;;;;6164200;23;20114;-92
2023/01/24 13:08:48;;;;;;;9.48;5.47;;;;;;;;;;6159827;23;20041;-92
2023/01/24 13:11:22;;;;;;;10.20;5.32;;;;;;;;;;6159792;23;20082;-92
2023/01/24 13:13:55;;;;;;;10.50;5.20;;;;;;;;;;6125730;23;20045;-92
2023/01/24 13:16:50;;;;;;;9.75;5.50;;;;;;;;;;6134860;23;20450;-91
2023/01/24 13:19:58;;;;;;;11.57;5.50;;;;;;;;;;6166078;23;20028;-92
2023/01/24 13:22:59;;;;;;;10.57;4.78;;;;;;;;;;6161998;23;20462;-92
2023/01/24 13:25:58;;;;;;;11.18;5.97;;;;;;;;;;6162496;23;20166;-92
2023/01/24 13:28:44;;;;;;;11.65;5.05;;;;;;;;;;6127635;23;20069;-91
2023/01/24 13:31:17;;;;;;;10.82;5.53;;;;;;;;;;6161882;23;20053;-91
2023/01/24 13:33:59;;;;;;;11.43;6.25;;;;;;;;;;6160910;23;20077;-91
2023/01/24 13:36:36;;;;;;;12.52;6.40;;;;;;;;;;6158772;23;20032;-91
2023/01/24 13:39:05;;;;;;;10.60;6.07;;;;;;;;;;6133881;23;20018;-91
2023/01/24 13:41:37;;;;;;;13.35;6.07;;;;;;;;;;6125221;23;20021;-91
2023/01/24 13:44:23;;;;;;;10.23;5.47;;;;;;;;;;6288541;22;20398;-91
2023/01/24 13:47:23;;;;;;;11.57;5.93;;;;;;;;;;6243961;22;20395;-91
2023/01/24 13:49:55;;;;;;;12.07;6.05;;;;;;;;;;6256888;22;20015;-92
2023/01/24 13:52:30;;;;;;;13.07;6.40;;;;;;;;;;6282366;22;20026;-91
2023/01/24 13:54:59;;;;;;;10.93;6.00;;;;;;;;;;6283721;22;20713;-91
2023/01/24 13:57:29;;;;;;;11.13;5.18;;;;;;;;;;6282167;22;20515;-92
2023/01/24 14:00:27;;;;;;;11.55;5.60;;;;;;;;;;6285203;22;20321;-91
2023/01/24 14:03:14;;;;;;;13.48;6.38;;;;;;;;;;6279370;22;20474;-91
2023/01/24 14:05:54;;;;;;;11.02;5.72;;;;;;;;;;6243577;22;20391;-90
2023/01/24 14:08:21;;;;;;;12.98;6.38;;;;;;;;;;6282867;22;20012;-90
2023/01/24 14:11:06;;;;;;;14.82;7.40;;;;;;;;;;6282121;22;20069;-92
2023/01/24 14:13:49;;;;;;;12.70;6.18;;;;;;;;;;6282341;22;20042;-91
2023/01/24 14:16:47;;;;;;;13.57;6.70;;;;;;;;;;6281177;22;20012;-92
2023/01/24 14:19:29;;;;;;;15.20;6.75;;;;;;;;;;6255858;22;20387;-92
2023/01/24 14:22:09;;;;;;;13.65;6.40;;;;;;;;;;6269911;22;20649;-91
2023/01/24 14:24:47;;;;;;;13.65;6.65;;;;;;;;;;6280917;22;20094;-91
2023/01/24 14:27:33;;;;;;;15.73;6.60;;;;;;;;;;6281944;22;20015;-92
2023/01/24 14:30:17;;;;;;;14.93;7.35;;;;;;;;;;6282081;22;20008;-91
2023/01/24 14:33:25;;;;;;;12.82;6.60;;;;;;;;;;6269115;22;20027;-91
2023/01/24 14:36:21;;;;;;;12.50;6.40;;;;;;;;;;6270121;22;20521;-91
2023/01/24 14:39:23;;;;;;;12.85;6.45;;;;;;;;;;6271328;22;20016;-91
2023/01/24 14:42:03;;;;;;;12.95;7.28;;;;;;;;;;6245945;22;20379;-91
2023/01/24 14:44:36;;;;;;;13.48;6.55;;;;;;;;;;6270406;22;20030;-92
2023/01/24 14:47:15;;;;;;;12.85;6.28;;;;;;;;;;6278872;22;20019;-92
2023/01/24 14:50:27;;;;;;;13.00;6.53;;;;;;;;;;6271132;22;20075;-91
2023/01/24 14:53:28;;;;;;;12.00;6.68;;;;;;;;;;6281529;22;20065;-92
2023/01/24 14:56:01;;;;;;;20.65;7.60;;;;;;;;;;6282339;22;20039;-91
2023/01/24 14:58:29;;;;;;;14.60;6.93;;;;;;;;;;6280094;22;20444;-91
2023/01/24 15:01:00;;;;;;;17.75;6.55;;;;;;;;;;6279428;22;20024;-91
2023/01/24 15:03:33;;;;;;;16.83;7.25;;;;;;;;;;6280618;22;20205;-92
2023/01/24 15:06:07;;;;;;;12.18;6.38;;;;;;;;;;6280765;22;20347;-90
2023/01/24 15:08:35;;;;;;;15.55;6.60;;;;;;;;;;6281037;22;20007;-91
2023/01/24 15:11:16;;;;;;;13.02;6.75;;;;;;;;;;6279978;22;20123;-91
2023/01/24 15:13:47;;;;;;;12.45;6.80;;;;;;;;;;6255304;22;20094;-91
2023/01/24 15:16:18;;;;;;;14.02;6.22;;;;;;;;;;6279938;22;20383;-90
2023/01/24 15:19:00;;;;;;;13.80;6.47;;;;;;;;;;6280481;22;20022;-91
2023/01/24 15:21:44;;;;;;;12.35;6.53;;;;;;;;;;6255708;22;20073;-90
2023/01/24 15:24:17;;;;;;;14.43;7.05;;;;;;;;;;6244734;22;20074;-91
2023/01/24 15:26:47;;;;;;;13.57;7.30;;;;;;;;;;6280538;22;20020;-91
2023/01/24 15:29:37;;;;;;;13.02;7.30;;;;;;;;;;6256747;22;20034;-91
2023/01/24 15:32:29;;;;;;;11.98;6.10;;;;;;;;;;6280695;22;20020;-92
2023/01/24 15:35:25;;;;;;;15.02;6.80;;;;;;;;;;6284344;22;20016;-94
2023/01/24 15:38:15;;;;;;;13.95;6.55;;;;;;;;;;6223187;22;20102;-90
2023/01/24 15:40:50;;;;;;;15.98;6.85;;;;;;;;;;6285817;22;20019;-91
2023/01/24 15:43:48;;;;;;;15.82;6.43;;;;;;;;;;6317319;22;20083;-92
2023/01/24 15:49:31;;;;;;;11.85;6.40;;;;;;;;;;6289496;22;20021;-93
2023/01/24 15:52:07;;;;;;;13.25;6.72;;;;;;;;;;6255992;22;20027;-93
2023/01/24 15:54:38;;;;;;;14.15;7.00;;;;;;;;;;6230806;22;20026;-91
2023/01/24 15:57:31;;;;;;;15.88;7.38;;;;;;;;;;6260612;22;20011;-92
2023/01/24 16:00:12;;;;;;;12.63;6.78;;;;;;;;;;6261018;22;20011;-92
2023/01/24 16:02:41;;;;;;;13.68;6.30;;;;;;;;;;6314096;22;20061;-92
2023/01/24 16:05:33;;;;;;;15.63;7.32;;;;;;;;;;6287057;22;20012;-92
2023/01/24 16:08:05;;;;;;;15.93;6.72;;;;;;;;;;6224363;22;20015;-93
2023/01/24 16:11:03;;;;;;;15.30;7.88;;;;;;;;;;6287026;22;20113;-92
2023/01/24 16:14:00;;;;;;;15.40;7.60;;;;;;;;;;6285224;22;20020;-92
2023/01/24 16:16:56;;;;;;;15.05;6.72;;;;;;;;;;6282129;22;20027;-91
2023/01/24 16:19:29;;;;;;;14.82;7.40;;;;;;;;;;6283357;22;20057;-92
2023/01/24 16:21:57;;;;;;;12.43;6.47;;;;;;;;;;6246794;22;20048;-92
2023/01/24 16:24:25;;;;;;;16.77;8.20;;;;;;;;;;6246206;22;20019;-91
2023/01/24 16:26:55;;;;;;;13.63;6.82;;;;;;;;;;6246430;22;20531;-92
2023/01/24 16:29:26;;;;;;;12.02;6.82;;;;;;;;;;6246710;22;20102;-92
2023/01/24 16:31:54;;;;;;;14.52;6.78;;;;;;;;;;6246288;22;20023;-92
2023/01/24 16:34:28;;;;;;;16.23;7.50;;;;;;;;;;6247579;22;20027;-91
2023/01/24 16:36:55;;;;;;;17.98;8.18;;;;;;;;;;6245596;22;20078;-92
2023/01/24 16:39:23;;;;;;;13.30;6.90;;;;;;;;;;6280488;22;20386;-92
2023/01/24 16:42:18;;;;;;;16.65;7.82;;;;;;;;;;6271810;22;20032;-92
2023/01/24 16:45:18;;;;;;;11.95;6.65;;;;;;;;;;6282637;22;20442;-92
2023/01/24 16:47:46;;;;;;;13.75;7.30;;;;;;;;;;6282562;22;20015;-92
2023/01/24 16:50:15;;;;;;;17.38;8.45;;;;;;;;;;6220859;22;20024;-91
2023/01/24 16:52:43;;;;;;;19.52;8.32;;;;;;;;;;6257119;22;20032;-91
2023/01/24 16:55:12;;;;;;;12.98;7.22;;;;;;;;;;6220326;22;20022;-93
2023/01/24 16:57:39;;;;;;;16.98;7.25;;;;;;;;;;6247664;22;20020;-93
2023/01/24 17:00:12;;;;;;;17.58;7.82;;;;;;;;;;6271666;22;20016;-92
2023/01/24 17:02:43;;;;;;;15.38;7.72;;;;;;;;;;6271260;22;20394;-93
2023/01/24 17:05:11;;;;;;;18.05;7.50;;;;;;;;;;6279182;22;20015;-93
2023/01/24 17:07:39;;;;;;;15.90;7.93;;;;;;;;;;6283761;22;20023;-93
2023/01/24 17:10:08;;;;;;;18.65;7.88;;;;;;;;;;6282714;22;20014;-93
2023/01/24 17:12:35;;;;;;;18.58;8.32;;;;;;;;;;6223824;22;20019;-89
2023/01/24 17:15:04;;;;;;;15.40;7.25;;;;;;;;;;6248923;22;20467;-92
2023/01/24 17:17:33;;;;;;;16.15;7.82;;;;;;;;;;6256620;22;20019;-89
2023/01/24 17:20:05;;;;;;;17.90;8.93;;;;;;;;;;6249144;22;20030;-93
2023/01/24 17:28:25;;;;;;;17.90;8.43;;;;;;;;;;6283313;22;20443;-92
2023/01/24 17:30:58;;;;;;;18.67;8.68;;;;;;;;;;6248422;22;20228;-92
2023/01/24 17:33:25;;;;;;;21.52;8.55;;;;;;;;;;6222405;22;20019;-91
2023/01/24 17:35:56;;;;;;;16.63;8.35;;;;;;;;;;6284919;22;20035;-94
2023/01/24 17:38:23;;;;;;;20.00;9.02;;;;;;;;;;6285577;22;20019;-93
2023/01/24 17:40:54;;;;;;;19.95;9.15;;;;;;;;;;6223298;22;20016;-94
2023/01/24 17:43:24;;;;;;;25.98;9.50;;;;;;;;;;6246831;22;20038;-94
2023/01/24 17:45:55;;;;;;;20.10;9.15;;;;;;;;;;6248372;22;20332;-93
2023/01/24 17:48:49;;;;;;;19.80;8.50;;;;;;;;;;6253470;22;20023;-93
2023/01/24 17:51:22;;;;;;;20.98;8.88;;;;;;;;;;6223398;22;20325;-94
2023/01/24 17:53:52;;;;;;;18.20;9.05;;;;;;;;;;6282019;22;20030;-94
2023/01/24 17:56:43;;;;;;;19.98;8.85;;;;;;;;;;6272314;22;20011;-93
2023/01/24 17:59:11;;;;;;;21.05;9.55;;;;;;;;;;6247291;22;20015;-93
2023/01/24 18:01:39;;;;;;;24.27;10.63;;;;;;;;;;6241730;22;20577;-93
2023/01/24 18:04:11;;;;;;;26.75;10.48;;;;;;;;;;6272245;22;20019;-94
2023/01/24 18:06:39;;;;;;;20.75;9.10;;;;;;;;;;6280397;22;20023;-93
2023/01/24 18:09:07;;;;;;;22.58;8.73;;;;;;;;;;6270635;22;20668;-94
2023/01/24 18:11:36;;;;;;;21.15;10.52;;;;;;;;;;6271804;22;20031;-94
2023/01/24 18:14:27;;;;;;;22.83;9.23;;;;;;;;;;6251538;22;20604;-94
2023/01/24 18:16:59;;;;;;;19.42;8.95;;;;;;;;;;6221170;22;20027;-95
2023/01/24 18:19:27;;;;;;;26.60;9.82;;;;;;;;;;6244942;22;20023;-93
2023/01/24 18:21:55;;;;;;;23.75;9.65;;;;;;;;;;6279644;22;20016;-93
2023/01/24 18:24:24;;;;;;;30.75;12.57;;;;;;;;;;6281211;22;20023;-93
2023/01/24 18:26:51;;;;;;;25.33;11.02;;;;;;;;;;6245216;22;20054;-93
2023/01/24 18:29:19;;;;;;;23.73;9.48;;;;;;;;;;6245100;22;20011;-91
2023/01/24 18:31:47;;;;;;;28.60;12.18;;;;;;;;;;6246857;22;20772;-93
2023/01/24 18:34:15;;;;;;;22.17;11.40;;;;;;;;;;6219459;22;20026;-93
2023/01/24 18:36:43;;;;;;;24.20;10.27;;;;;;;;;;6253653;22;20030;-92
2023/01/24 18:39:39;;;;;;;21.75;9.23;;;;;;;;;;6280005;22;20016;-93
2023/01/24 18:42:07;;;;;;;21.30;9.00;;;;;;;;;;6240844;22;20107;-93
2023/01/24 18:44:35;;;;;;;23.50;10.02;;;;;;;;;;6254581;22;20018;-93
2023/01/24 18:47:05;;;;;;;21.27;9.13;;;;;;;;;;6218018;22;20106;-93
2023/01/24 18:49:33;;;;;;;22.50;9.32;;;;;;;;;;6243776;22;20023;-94
2023/01/24 18:52:09;;;;;;;28.45;11.25;;;;;;;;;;6244678;22;20030;-93
2023/01/24 18:54:37;;;;;;;25.77;11.32;;;;;;;;;;6219547;22;20024;-94
2023/01/24 18:57:07;;;;;;;24.08;10.73;;;;;;;;;;6268678;22;20414;-94
2023/01/24 18:59:35;;;;;;;26.88;10.75;;;;;;;;;;6244101;22;20489;-93
2023/01/24 19:02:19;;;;;;;26.33;10.68;;;;;;;;;;6265946;22;20109;-93
2023/01/24 19:04:47;;;;;;;22.27;10.05;;;;;;;;;;6219958;22;20023;-93
2023/01/24 19:07:45;;;;;;;25.17;9.43;;;;;;;;;;6269968;22;20019;-94
2023/01/24 19:10:14;;;;;;;25.77;10.55;;;;;;;;;;6220285;22;20077;-92
2023/01/24 19:12:41;;;;;;;21.60;9.20;;;;;;;;;;6270229;22;20024;-94
2023/01/24 19:15:11;;;;;;;28.42;11.20;;;;;;;;;;6219575;22;20023;-94
2023/01/24 19:17:39;;;;;;;22.33;10.13;;;;;;;;;;6217520;22;20043;-94
2023/01/24 19:20:08;;;;;;;23.30;10.63;;;;;;;;;;6244784;22;20073;-93
2023/01/24 19:22:37;;;;;;;24.17;10.27;;;;;;;;;;6244692;22;20015;-93
2023/01/24 19:25:05;;;;;;;27.17;10.65;;;;;;;;;;6245295;22;20398;-94
2023/01/24 19:27:34;;;;;;;25.02;10.90;;;;;;;;;;6219442;22;20028;-93
2023/01/24 19:30:01;;;;;;;27.27;10.85;;;;;;;;;;6245594;22;20019;-94
2023/01/24 19:32:29;;;;;;;27.67;11.88;;;;;;;;;;6242779;22;20024;-94
2023/01/24 19:34:57;;;;;;;32.28;11.80;;;;;;;;;;6271021;22;20173;-94
2023/01/24 19:37:25;;;;;;;27.88;12.32;;;;;;;;;;6218507;22;20023;-93
2023/01/24 19:39:53;;;;;;;24.73;10.05;;;;;;;;;;6269742;22;20023;-93
2023/01/24 19:42:22;;;;;;;23.60;10.77;;;;;;;;;;6253831;22;20507;-93
2023/01/24 19:44:55;;;;;;;25.60;10.25;;;;;;;;;;6217270;22;20027;-93
2023/01/24 19:47:23;;;;;;;31.23;11.15;;;;;;;;;;6276892;22;20024;-94
2023/01/24 19:49:55;;;;;;;24.88;10.63;;;;;;;;;;6279023;22;20011;-93
2023/01/24 19:52:23;;;;;;;29.42;10.65;;;;;;;;;;6279504;22;20099;-92
2023/01/24 19:54:51;;;;;;;25.35;10.50;;;;;;;;;;6243875;22;20352;-93
2023/01/24 19:57:19;;;;;;;25.65;11.77;;;;;;;;;;6243149;22;20024;-93
2023/01/24 19:59:47;;;;;;;24.83;10.52;;;;;;;;;;6280745;22;20019;-93
2023/01/24 20:02:16;;;;;;;28.10;11.40;;;;;;;;;;6242213;22;20026;-93
2023/01/24 20:04:43;;;;;;;31.08;11.90;;;;;;;;;;6279348;22;20083;-93
2023/01/24 20:07:19;;;;;;;29.92;11.38;;;;;;;;;;6243028;22;20027;-93
2023/01/24 20:09:47;;;;;;;23.63;10.73;;;;;;;;;;6280417;22;20018;-93
2023/01/24 20:12:15;;;;;;;27.10;12.27;;;;;;;;;;6252746;22;20355;-93
2023/01/24 20:14:49;;;;;;;21.38;10.45;;;;;;;;;;6242842;22;20631;-93
2023/01/24 20:17:21;;;;;;;26.23;9.43;;;;;;;;;;6242969;22;20065;-93
2023/01/24 20:19:49;;;;;;;22.25;10.57;;;;;;;;;;6219364;22;20019;-93
2023/01/24 20:22:31;;;;;;;25.63;10.48;;;;;;;;;;6246462;22;20102;-93
2023/01/24 20:24:59;;;;;;;24.42;9.38;;;;;;;;;;6252524;22;20054;-92
2023/01/24 20:27:51;;;;;;;27.02;10.73;;;;;;;;;;6268281;22;20022;-93
2023/01/24 20:30:20;;;;;;;27.23;10.18;;;;;;;;;;6218836;22;20019;-94
2023/01/24 20:32:49;;;;;;;29.38;10.68;;;;;;;;;;6242531;22;20031;-93
2023/01/24 20:35:22;;;;;;;22.55;10.18;;;;;;;;;;6243660;22;20462;-93
2023/01/24 20:37:52;;;;;;;28.40;11.18;;;;;;;;;;6267643;22;20352;-93
2023/01/24 20:40:21;;;;;;;22.40;10.27;;;;;;;;;;6244504;22;20050;-93
2023/01/24 20:42:49;;;;;;;27.13;11.10;;;;;;;;;;6267338;22;20455;-93
2023/01/24 20:45:17;;;;;;;26.73;11.38;;;;;;;;;;6279885;22;20023;-92
2023/01/24 20:47:45;;;;;;;23.48;10.90;;;;;;;;;;6219329;22;20073;-93
2023/01/24 20:50:13;;;;;;;24.77;11.02;;;;;;;;;;6246947;22;20042;-93
2023/01/24 20:52:41;;;;;;;24.70;11.05;;;;;;;;;;6283045;22;20041;-93
2023/01/24 20:55:09;;;;;;;25.10;10.60;;;;;;;;;;6282827;22;20028;-92
2023/01/24 20:57:37;;;;;;;27.25;10.80;;;;;;;;;;6244877;22;20098;-93
2023/01/24 21:00:06;;;;;;;24.90;10.60;;;;;;;;;;6283279;22;20328;-93
2023/01/24 21:02:33;;;;;;;25.35;11.05;;;;;;;;;;6280487;22;20043;-95
2023/01/24 21:05:01;;;;;;;23.77;10.50;;;;;;;;;;6219469;22;20028;-93
2023/01/24 21:07:42;;;;;;;25.73;11.02;;;;;;;;;;6244642;22;20030;-95
2023/01/24 21:10:11;;;;;;;23.45;9.60;;;;;;;;;;6256903;22;20689;-93
2023/01/24 21:12:39;;;;;;;27.52;11.27;;;;;;;;;;6271036;22;20020;-93
2023/01/24 21:15:07;;;;;;;24.42;10.30;;;;;;;;;;6280301;22;20015;-93
2023/01/24 21:17:35;;;;;;;28.38;11.32;;;;;;;;;;6278472;22;20073;-93
2023/01/24 21:20:04;;;;;;;22.20;10.18;;;;;;;;;;6220307;22;20023;-93
2023/01/24 21:22:31;;;;;;;19.75;10.23;;;;;;;;;;6218686;22;20023;-92
2023/01/24 21:24:59;;;;;;;22.40;9.57;;;;;;;;;;6280655;22;20107;-92
2023/01/24 21:28:18;;;;;;;22.55;10.35;;;;;;;;;;6250560;22;20538;-93
2023/01/24 21:31:00;;;;;;;22.08;9.93;;;;;;;;;;6269541;22;20020;-93
2023/01/24 21:33:29;;;;;;;22.98;10.27;;;;;;;;;;6278773;22;20026;-92
2023/01/24 21:36:27;;;;;;;27.65;11.68;;;;;;;;;;6250639;22;20034;-93
2023/01/24 21:39:02;;;;;;;25.30;10.38;;;;;;;;;;6270526;22;20024;-94
2023/01/24 21:42:05;;;;;;;23.67;10.82;;;;;;;;;;6257232;22;20042;-93
2023/01/24 21:44:57;;;;;;;25.33;9.60;;;;;;;;;;6269576;22;20077;-91
2023/01/24 21:47:25;;;;;;;27.63;10.43;;;;;;;;;;6219122;22;20027;-91
2023/01/24 21:49:57;;;;;;;22.25;9.98;;;;;;;;;;6244765;22;20024;-91
2023/01/24 21:52:25;;;;;;;24.73;10.75;;;;;;;;;;6245112;22;20027;-90
2023/01/24 21:54:57;;;;;;;24.77;10.95;;;;;;;;;;6244560;22;20363;-91
2023/01/24 22:00:14;;;;;;;23.42;11.13;;;;;;;;;;6244878;22;20483;-90
2023/01/24 22:02:41;;;;;;;23.98;10.50;;;;;;;;;;6219761;22;20024;-90
2023/01/24 22:05:37;;;;;;;22.92;10.88;;;;;;;;;;6251214;22;20049;-90
2023/01/24 22:08:08;;;;;;;24.10;9.55;;;;;;;;;;6246085;22;20027;-90
2023/01/24 22:10:37;;;;;;;23.63;10.00;;;;;;;;;;6268509;22;20018;-91
2023/01/24 22:13:08;;;;;;;23.25;10.73;;;;;;;;;;6344618;22;20015;-89
2023/01/24 22:15:35;;;;;;;23.45;10.55;;;;;;;;;;6317411;22;20011;-90
2023/01/24 22:18:11;;;;;;;22.27;10.20;;;;;;;;;;6279908;22;20029;-89
2023/01/24 22:20:39;;;;;;;24.83;10.63;;;;;;;;;;6282642;22;20046;-90
2023/01/24 22:23:31;;;;;;;25.67;10.38;;;;;;;;;;6282274;22;20101;-91
2023/01/24 22:26:11;;;;;;;22.15;9.57;;;;;;;;;;6258487;22;20037;-91
2023/01/24 22:28:40;;;;;;;23.63;11.07;;;;;;;;;;6256666;22;20019;-91
2023/01/24 22:31:12;;;;;;;25.65;11.48;;;;;;;;;;6294613;22;20510;-91
2023/01/24 22:33:39;;;;;;;21.35;10.25;;;;;;;;;;6316840;22;20101;-91
2023/01/24 22:36:33;;;;;;;22.35;9.73;;;;;;;;;;6307108;22;20030;-90
2023/01/24 22:39:27;;;;;;;26.73;11.15;;;;;;;;;;6287283;22;20026;-91
2023/01/24 22:42:00;;;;;;;22.33;9.82;;;;;;;;;;6280912;22;20062;-91
2023/01/24 22:44:37;;;;;;;24.20;11.13;;;;;;;;;;6293111;22;20461;-90
2023/01/24 22:47:05;;;;;;;24.77;10.73;;;;;;;;;;6279798;22;20023;-90
2023/01/24 22:49:36;;;;;;;23.63;10.35;;;;;;;;;;6254548;22;20023;-89
2023/01/24 22:52:27;;;;;;;24.65;11.20;;;;;;;;;;6285731;22;20075;-90
2023/01/24 22:54:57;;;;;;;26.70;11.38;;;;;;;;;;6255619;22;20019;-90
2023/01/24 22:57:33;;;;;;;25.58;9.68;;;;;;;;;;6257812;22;20022;-90
2023/01/24 23:00:02;;;;;;;24.02;9.45;;;;;;;;;;6283156;22;20088;-90
2023/01/24 23:02:35;;;;;;;23.38;10.70;;;;;;;;;;6293289;22;20038;-90
2023/01/24 23:05:26;;;;;;;23.00;10.30;;;;;;;;;;6346951;22;20023;-91
2023/01/24 23:08:37;;;;;;;22.33;9.15;;;;;;;;;;6263688;22;20019;-90
2023/01/24 23:11:14;;;;;;;25.75;10.90;;;;;;;;;;6281330;22;20019;-90
2023/01/24 23:16:53;;;;;;;22.23;10.50;;;;;;;;;;6319612;22;20033;-91
2023/01/24 23:22:38;;;;;;;23.48;10.20;;;;;;;;;;6282108;22;20015;-91
2023/01/24 23:25:13;;;;;;;26.52;10.20;;;;;;;;;;6281336;22;20401;-91
2023/01/24 23:27:53;;;;;;;20.83;9.93;;;;;;;;;;6317551;22;20089;-91
2023/01/24 23:34:05;;;;;;;22.50;9.25;;;;;;;;;;6306304;22;20025;-91
2023/01/24 23:36:57;;;;;;;25.08;11.50;;;;;;;;;;6284467;22;20015;-91
2023/01/24 23:39:36;;;;;;;25.98;10.77;;;;;;;;;;6307307;22;20022;-90
2023/01/24 23:42:27;;;;;;;23.95;9.18;;;;;;;;;;6342076;22;20473;-91
2023/01/24 23:44:57;;;;;;;23.58;9.35;;;;;;;;;;6292372;22;20014;-91
2023/01/24 23:47:29;;;;;;;21.92;10.63;;;;;;;;;;6254639;22;20050;-91
2023/01/24 23:50:01;;;;;;;23.15;10.65;;;;;;;;;;6281648;22;20064;-91
2023/01/24 23:52:53;;;;;;;24.05;11.18;;;;;;;;;;6305948;22;20030;-91
2023/01/24 23:55:21;;;;;;;22.88;9.45;;;;;;;;;;6317764;22;20019;-90
2023/01/24 23:57:53;;;;;;;24.80;10.85;;;;;;;;;;6345387;22;20015;-91
